Time;durP1;ratioP1;P1;durP2;ratioP2;P2;SDS_P1;SDS_P2;PMS_P1;PMS_P2;Temp;Humidity;BMP_temperature;BMP_pressure;BME280_temperature;BME280_humidity;BME280_pressure;Samples;Min_cycle;Max_cycle;Signal;HPM_P1;HPM_P2
2021/12/03 00:00:41;;;;;;;7.05;3.22;;;-0.30;99.90;;;;;;5108902;27;20122;-78
2021/12/03 00:03:08;;;;;;;8.27;2.72;;;-0.30;99.90;;;;;;5132417;27;20050;-78
2021/12/03 00:05:34;;;;;;;8.15;3.75;;;-0.30;99.90;;;;;;5120307;27;20118;-77
2021/12/03 00:08:00;;;;;;;8.88;4.75;;;-0.20;99.90;;;;;;5111642;27;20045;-78
2021/12/03 00:10:26;;;;;;;8.10;3.40;;;-0.20;99.90;;;;;;5114960;27;20042;-78
2021/12/03 00:12:54;;;;;;;11.80;3.10;;;-0.30;99.90;;;;;;5112496;27;20083;-83
2021/12/03 00:15:23;;;;;;;9.98;3.83;;;-0.20;99.90;;;;;;5096681;27;20043;-78
2021/12/03 00:17:49;;;;;;;5.43;2.92;;;-0.20;99.90;;;;;;5131027;27;20046;-78
2021/12/03 00:20:16;;;;;;;8.02;3.38;;;-0.20;99.90;;;;;;5119498;28;20043;-78
2021/12/03 00:22:44;;;;;;;8.18;3.28;;;-0.20;99.90;;;;;;5112601;27;20046;-78
2021/12/03 00:25:10;;;;;;;6.50;3.45;;;-0.20;99.90;;;;;;5099627;27;20038;-78
2021/12/03 00:27:36;;;;;;;7.07;3.47;;;-0.10;99.90;;;;;;5136870;27;20046;-77
2021/12/03 00:30:04;;;;;;;7.78;3.42;;;-0.10;99.90;;;;;;5128084;27;20091;-78
2021/12/03 00:32:30;;;;;;;8.35;4.03;;;-0.10;99.90;;;;;;5118022;27;20437;-78
2021/12/03 00:34:56;;;;;;;5.38;3.28;;;-0.10;99.90;;;;;;5111305;27;20107;-83
2021/12/03 00:37:22;;;;;;;9.10;2.85;;;0.00;99.90;;;;;;5116442;27;20106;-78
2021/12/03 00:39:47;;;;;;;7.28;2.63;;;0.10;99.90;;;;;;5118059;27;20496;-79
2021/12/03 00:42:16;;;;;;;5.18;2.55;;;0.10;99.90;;;;;;5117844;27;20074;-78
2021/12/03 00:44:45;;;;;;;5.38;3.00;;;0.10;99.90;;;;;;5116428;27;20065;-78
2021/12/03 00:47:11;;;;;;;9.25;3.08;;;0.20;99.90;;;;;;5100828;27;20185;-78
2021/12/03 00:49:39;;;;;;;11.07;3.78;;;0.20;99.90;;;;;;5099603;27;20065;-79
2021/12/03 00:52:05;;;;;;;4.78;2.92;;;0.20;99.90;;;;;;5118330;27;20458;-78
2021/12/03 00:54:31;;;;;;;8.55;3.88;;;0.30;99.90;;;;;;5108242;27;20125;-78
2021/12/03 00:56:57;;;;;;;8.20;3.80;;;0.30;99.90;;;;;;5136439;27;20095;-83
2021/12/03 00:59:22;;;;;;;8.95;4.05;;;0.40;99.90;;;;;;5115112;27;20166;-80
2021/12/03 01:01:48;;;;;;;10.38;4.18;;;0.30;99.90;;;;;;5145962;27;20062;-80
2021/12/03 01:04:14;;;;;;;12.25;4.63;;;0.30;99.90;;;;;;5135391;27;20050;-77
2021/12/03 01:06:40;;;;;;;13.43;4.68;;;0.30;99.90;;;;;;5092416;27;20090;-78
2021/12/03 01:09:05;;;;;;;14.80;4.57;;;0.30;99.90;;;;;;5109165;27;20054;-77
2021/12/03 01:11:31;;;;;;;14.52;5.38;;;0.30;99.90;;;;;;5099195;27;20480;-78
2021/12/03 01:14:00;;;;;;;12.48;5.93;;;0.30;99.90;;;;;;5118296;27;20043;-78
2021/12/03 01:16:27;;;;;;;11.55;5.78;;;0.40;99.90;;;;;;5112101;27;20484;-80
2021/12/03 01:18:54;;;;;;;12.38;6.35;;;0.30;99.90;;;;;;5115567;27;20051;-78
2021/12/03 01:21:20;;;;;;;15.32;6.30;;;0.40;99.90;;;;;;5114616;27;20042;-78
2021/12/03 01:23:47;;;;;;;17.55;6.40;;;0.40;99.90;;;;;;5121225;27;20046;-79
2021/12/03 01:26:13;;;;;;;18.55;6.45;;;0.40;99.90;;;;;;5122095;27;20043;-78
2021/12/03 01:28:40;;;;;;;18.65;7.45;;;0.50;99.90;;;;;;5099434;27;20515;-80
2021/12/03 01:31:06;;;;;;;17.05;7.50;;;0.40;99.90;;;;;;5121828;27;20479;-77
2021/12/03 01:33:32;;;;;;;14.88;6.57;;;0.40;99.90;;;;;;5117232;27;20065;-77
2021/12/03 01:35:58;;;;;;;18.13;6.38;;;0.40;99.90;;;;;;5136861;27;20050;-79
2021/12/03 01:38:23;;;;;;;13.75;5.95;;;0.50;99.90;;;;;;5133778;27;20086;-78
2021/12/03 01:40:49;;;;;;;15.43;6.53;;;0.40;99.90;;;;;;5098514;27;20495;-78
2021/12/03 01:43:22;;;;;;;20.00;6.80;;;0.50;99.90;;;;;;5134702;27;20054;-77
2021/12/03 01:45:52;;;;;;;11.55;5.28;;;0.50;99.90;;;;;;5102528;27;20450;-78
2021/12/03 01:48:18;;;;;;;12.85;6.57;;;0.50;99.90;;;;;;5135921;27;20745;-78
2021/12/03 01:50:46;;;;;;;17.50;6.47;;;0.50;99.90;;;;;;5135856;27;20121;-78
2021/12/03 01:53:14;;;;;;;23.73;7.75;;;0.50;99.90;;;;;;5135302;27;20161;-77
2021/12/03 01:55:42;;;;;;;19.88;7.05;;;0.50;99.90;;;;;;5135344;27;20039;-78
2021/12/03 01:58:08;;;;;;;14.75;6.70;;;0.50;99.90;;;;;;5118196;27;20074;-78
2021/12/03 02:00:41;;;;;;;13.77;6.68;;;0.50;99.90;;;;;;5135335;27;20086;-77
2021/12/03 02:03:09;;;;;;;15.90;7.95;;;0.50;99.90;;;;;;5117904;27;20103;-80
2021/12/03 02:05:35;;;;;;;20.42;7.10;;;0.50;99.90;;;;;;5118373;27;20049;-77
2021/12/03 02:08:01;;;;;;;14.10;6.75;;;0.60;99.90;;;;;;5153966;27;20089;-77
2021/12/03 02:10:27;;;;;;;18.42;7.07;;;0.50;99.90;;;;;;5153139;27;20042;-78
2021/12/03 02:12:55;;;;;;;18.77;7.88;;;0.50;99.90;;;;;;5135586;27;20057;-77
2021/12/03 02:15:21;;;;;;;19.50;8.68;;;0.50;99.90;;;;;;5118143;27;20103;-77
2021/12/03 02:17:47;;;;;;;20.92;9.07;;;0.50;99.90;;;;;;5135402;27;20047;-77
2021/12/03 02:20:14;;;;;;;20.80;9.65;;;0.50;99.90;;;;;;5101024;27;20047;-77
2021/12/03 02:22:41;;;;;;;22.55;11.80;;;0.50;99.90;;;;;;5111399;27;20081;-77
2021/12/03 02:25:10;;;;;;;21.98;11.30;;;0.50;99.90;;;;;;5135356;27;20045;-83
2021/12/03 02:27:36;;;;;;;25.80;12.90;;;0.60;99.90;;;;;;5114666;27;20051;-78
2021/12/03 02:30:04;;;;;;;29.25;14.20;;;0.50;99.90;;;;;;5114425;27;20058;-77
2021/12/03 02:32:30;;;;;;;28.08;13.70;;;0.50;99.90;;;;;;5133421;27;20043;-77
2021/12/03 02:34:56;;;;;;;32.83;14.32;;;0.50;99.90;;;;;;5118011;27;20057;-76
2021/12/03 02:37:21;;;;;;;32.70;15.00;;;0.60;99.90;;;;;;5096727;27;20081;-76
2021/12/03 02:39:47;;;;;;;34.42;16.50;;;0.60;99.90;;;;;;5123606;27;20051;-78
2021/12/03 02:42:13;;;;;;;36.63;16.42;;;0.60;99.90;;;;;;5117267;27;20509;-81
2021/12/03 02:44:39;;;;;;;32.22;16.50;;;0.60;99.90;;;;;;5135108;27;20051;-77
2021/12/03 02:47:05;;;;;;;34.10;18.35;;;0.60;99.90;;;;;;5118410;27;20057;-77
2021/12/03 02:49:39;;;;;;;37.88;19.73;;;0.60;99.90;;;;;;5134280;27;20046;-77
2021/12/03 02:52:06;;;;;;;35.17;19.27;;;0.60;99.90;;;;;;5135277;27;20039;-77
2021/12/03 02:54:31;;;;;;;41.65;20.38;;;0.60;99.90;;;;;;5117410;27;20738;-77
2021/12/03 02:56:57;;;;;;;37.90;18.67;;;0.60;99.90;;;;;;5134629;27;20051;-78
2021/12/03 02:59:23;;;;;;;37.45;19.70;;;0.60;99.90;;;;;;5134046;27;20043;-76
2021/12/03 03:01:48;;;;;;;36.25;19.48;;;0.60;99.90;;;;;;5117108;27;20055;-76
2021/12/03 03:04:14;;;;;;;30.17;17.48;;;0.60;99.90;;;;;;5134184;27;20045;-76
2021/12/03 03:06:40;;;;;;;34.42;20.65;;;0.60;99.90;;;;;;5134432;27;20043;-77
2021/12/03 03:09:11;;;;;;;33.83;19.98;;;0.60;99.90;;;;;;5134820;27;20043;-78
2021/12/03 03:11:37;;;;;;;37.13;21.48;;;0.60;99.90;;;;;;5135041;27;20046;-76
2021/12/03 03:14:04;;;;;;;41.17;20.35;;;0.60;99.90;;;;;;5117574;27;20399;-77
2021/12/03 03:16:31;;;;;;;36.15;20.13;;;0.50;99.90;;;;;;5117435;27;20056;-77
2021/12/03 03:18:57;;;;;;;39.55;21.73;;;0.60;99.90;;;;;;5134424;27;20107;-77
2021/12/03 03:21:23;;;;;;;36.85;20.15;;;0.50;99.90;;;;;;5134217;27;20076;-79
2021/12/03 03:23:49;;;;;;;31.70;20.02;;;0.50;99.90;;;;;;5134381;27;20102;-77
2021/12/03 03:26:15;;;;;;;36.70;20.75;;;0.60;99.90;;;;;;5121183;27;20400;-77
2021/12/03 03:28:44;;;;;;;33.40;20.40;;;0.60;99.90;;;;;;5132157;27;20074;-77
2021/12/03 03:31:09;;;;;;;37.50;21.00;;;0.50;99.90;;;;;;5124250;27;20043;-80
2021/12/03 03:33:36;;;;;;;35.25;20.38;;;0.50;99.90;;;;;;5133814;27;20099;-77
2021/12/03 03:36:03;;;;;;;37.05;20.63;;;0.50;99.90;;;;;;5134415;27;20062;-77
2021/12/03 03:38:29;;;;;;;36.65;20.67;;;0.50;99.90;;;;;;5152274;27;20475;-78
2021/12/03 03:40:54;;;;;;;30.55;19.83;;;0.50;99.90;;;;;;5117154;27;20047;-77
2021/12/03 03:43:21;;;;;;;28.83;17.67;;;0.50;99.90;;;;;;5099643;27;20050;-77
2021/12/03 03:45:48;;;;;;;37.10;20.30;;;0.50;99.90;;;;;;5134409;27;20831;-77
2021/12/03 03:48:14;;;;;;;29.45;19.52;;;0.50;99.90;;;;;;5134467;27;20042;-78
2021/12/03 03:50:40;;;;;;;30.02;19.17;;;0.50;99.90;;;;;;5134433;27;20038;-81
2021/12/03 03:53:06;;;;;;;33.00;20.20;;;0.50;99.90;;;;;;5100387;27;20055;-76
2021/12/03 03:55:32;;;;;;;30.15;18.52;;;0.50;99.90;;;;;;5133381;27;20050;-78
2021/12/03 03:58:00;;;;;;;32.13;19.05;;;0.50;99.90;;;;;;5130589;27;20039;-76
2021/12/03 04:00:34;;;;;;;35.47;20.13;;;0.50;99.90;;;;;;5127288;27;20090;-78
2021/12/03 04:03:00;;;;;;;35.25;19.77;;;0.50;99.90;;;;;;5130998;27;20051;-79
2021/12/03 04:05:26;;;;;;;35.20;19.73;;;0.50;99.90;;;;;;5096318;27;20435;-77
2021/12/03 04:07:52;;;;;;;34.38;20.23;;;0.50;99.90;;;;;;5096687;27;20045;-77
2021/12/03 04:10:19;;;;;;;32.92;19.17;;;0.50;99.90;;;;;;5131555;27;20624;-77
2021/12/03 04:12:45;;;;;;;34.33;19.73;;;0.50;99.90;;;;;;5096334;28;20046;-78
2021/12/03 04:15:12;;;;;;;33.45;19.88;;;0.40;99.90;;;;;;5113506;28;20039;-77
2021/12/03 04:17:37;;;;;;;34.72;19.95;;;0.40;99.90;;;;;;5129401;28;20383;-77
2021/12/03 04:20:05;;;;;;;32.75;19.58;;;0.40;99.90;;;;;;5095732;28;20046;-77
2021/12/03 04:22:32;;;;;;;54.20;21.10;;;0.40;99.90;;;;;;5129556;28;20043;-77
2021/12/03 04:24:59;;;;;;;34.08;20.42;;;0.50;99.90;;;;;;5130075;28;20043;-77
2021/12/03 04:27:25;;;;;;;38.08;20.45;;;0.50;99.90;;;;;;5129552;28;20046;-77
2021/12/03 04:29:50;;;;;;;33.00;20.10;;;0.50;99.90;;;;;;5130609;28;20039;-77
2021/12/03 04:32:17;;;;;;;32.92;21.10;;;0.50;99.90;;;;;;5115487;27;20125;-77
2021/12/03 04:34:44;;;;;;;35.80;20.80;;;0.50;99.90;;;;;;5116538;27;20043;-79
2021/12/03 04:37:10;;;;;;;39.97;21.35;;;0.50;99.90;;;;;;5117061;27;20047;-77
2021/12/03 04:39:36;;;;;;;34.63;20.75;;;0.50;99.90;;;;;;5151591;27;20091;-78
2021/12/03 04:42:01;;;;;;;35.45;20.63;;;0.50;99.90;;;;;;5133800;27;20097;-77
2021/12/03 04:44:27;;;;;;;39.15;21.80;;;0.40;99.90;;;;;;5116343;27;20142;-77
2021/12/03 04:46:53;;;;;;;36.33;21.00;;;0.50;99.90;;;;;;5133964;27;20042;-77
2021/12/03 04:49:19;;;;;;;39.75;21.60;;;0.50;99.90;;;;;;5133805;27;20681;-77
2021/12/03 04:51:45;;;;;;;38.22;22.27;;;0.50;99.90;;;;;;5133242;27;20039;-77
2021/12/03 04:54:10;;;;;;;38.38;21.55;;;0.50;99.90;;;;;;5115827;27;20073;-77
2021/12/03 04:56:36;;;;;;;31.88;19.48;;;0.40;99.90;;;;;;5115294;27;20049;-77
2021/12/03 04:59:02;;;;;;;32.22;19.77;;;0.40;99.90;;;;;;5115509;27;20055;-77
2021/12/03 05:01:29;;;;;;;32.28;19.40;;;0.40;99.90;;;;;;5114935;27;20073;-79
2021/12/03 05:03:55;;;;;;;42.83;21.17;;;0.40;99.90;;;;;;5133105;27;20078;-77
2021/12/03 05:06:29;;;;;;;34.85;19.63;;;0.40;99.90;;;;;;5151730;27;20081;-77
2021/12/03 05:08:56;;;;;;;31.02;20.10;;;0.40;99.90;;;;;;5131512;27;20058;-77
2021/12/03 05:11:21;;;;;;;36.30;19.92;;;0.50;99.90;;;;;;5154096;27;20437;-77
2021/12/03 05:13:47;;;;;;;33.90;19.85;;;0.40;99.90;;;;;;5157083;27;20042;-78
2021/12/03 05:16:13;;;;;;;32.53;18.70;;;0.40;99.90;;;;;;5157673;27;20054;-80
2021/12/03 05:18:42;;;;;;;31.60;17.83;;;0.40;99.90;;;;;;5122738;27;20081;-77
2021/12/03 05:21:07;;;;;;;34.70;18.95;;;0.40;99.90;;;;;;5157428;27;20068;-77
2021/12/03 05:23:33;;;;;;;33.60;19.20;;;0.40;99.90;;;;;;5156942;27;20050;-78
2021/12/03 05:25:59;;;;;;;32.67;18.45;;;0.40;99.90;;;;;;5138432;27;20435;-77
2021/12/03 05:28:26;;;;;;;33.65;19.42;;;0.40;99.90;;;;;;5116172;27;20092;-77
2021/12/03 05:30:52;;;;;;;31.02;18.83;;;0.40;99.90;;;;;;5123350;27;20061;-78
2021/12/03 05:33:19;;;;;;;32.47;18.60;;;0.50;99.90;;;;;;5136598;27;20043;-77
2021/12/03 05:35:45;;;;;;;36.65;20.27;;;0.50;99.90;;;;;;5135878;27;20050;-77
2021/12/03 05:38:11;;;;;;;39.10;20.65;;;0.50;99.90;;;;;;5119359;27;20599;-77
2021/12/03 05:40:37;;;;;;;35.40;20.70;;;0.50;99.90;;;;;;5135871;27;20050;-78
2021/12/03 05:43:03;;;;;;;33.90;19.95;;;0.50;99.90;;;;;;5136175;27;20039;-78
2021/12/03 05:45:32;;;;;;;36.40;20.58;;;0.50;99.90;;;;;;5102406;27;20042;-83
2021/12/03 05:47:58;;;;;;;43.17;18.50;;;0.60;99.90;;;;;;5119321;27;20685;-77
2021/12/03 05:50:24;;;;;;;41.53;20.83;;;0.60;99.90;;;;;;5136268;27;20039;-77
2021/12/03 05:52:50;;;;;;;35.10;18.52;;;0.50;99.90;;;;;;5135530;27;20050;-78
2021/12/03 05:55:17;;;;;;;35.53;19.50;;;0.60;99.90;;;;;;5136123;27;20034;-78
2021/12/03 05:57:44;;;;;;;35.33;18.92;;;0.60;99.90;;;;;;5118597;27;20107;-78
2021/12/03 06:00:17;;;;;;;35.70;19.10;;;0.60;99.90;;;;;;5135903;27;20133;-78
2021/12/03 06:02:43;;;;;;;37.05;19.98;;;0.60;99.90;;;;;;5135613;27;20050;-77
2021/12/03 06:05:09;;;;;;;33.20;18.77;;;0.60;99.90;;;;;;5135680;27;20402;-76
2021/12/03 06:07:35;;;;;;;30.48;17.23;;;0.70;99.90;;;;;;5135885;27;20051;-77
2021/12/03 06:10:01;;;;;;;32.38;17.42;;;0.60;99.90;;;;;;5118990;27;20038;-77
2021/12/03 06:12:26;;;;;;;33.00;18.60;;;0.60;99.90;;;;;;5150288;27;20039;-77
2021/12/03 06:14:52;;;;;;;39.40;19.58;;;0.70;99.90;;;;;;5104674;27;20043;-77
2021/12/03 06:17:18;;;;;;;37.90;18.75;;;0.60;99.90;;;;;;5107681;27;20071;-77
2021/12/03 06:19:44;;;;;;;31.13;16.77;;;0.70;99.90;;;;;;5114697;27;20042;-77
2021/12/03 06:22:10;;;;;;;33.40;18.40;;;0.70;99.90;;;;;;5115152;27;20043;-78
2021/12/03 06:24:38;;;;;;;26.83;16.85;;;0.70;99.90;;;;;;5096961;27;20485;-83
2021/12/03 06:27:05;;;;;;;37.35;18.48;;;0.70;99.90;;;;;;5133491;27;20082;-79
2021/12/03 06:29:31;;;;;;;32.80;17.67;;;0.70;99.90;;;;;;5098040;27;20414;-77
2021/12/03 06:31:56;;;;;;;28.23;17.30;;;0.70;99.90;;;;;;5113912;27;20038;-77
2021/12/03 06:34:22;;;;;;;31.08;16.30;;;0.60;99.90;;;;;;5153810;27;20125;-78
2021/12/03 06:36:48;;;;;;;29.67;16.45;;;0.70;99.90;;;;;;5117906;27;20238;-79
2021/12/03 06:39:14;;;;;;;29.55;16.33;;;0.70;99.90;;;;;;5153522;27;20053;-79
2021/12/03 06:41:39;;;;;;;29.10;15.57;;;0.70;99.90;;;;;;5117979;27;20047;-80
2021/12/03 06:44:05;;;;;;;28.67;16.30;;;0.70;99.90;;;;;;5100993;27;20057;-77
2021/12/03 06:46:32;;;;;;;27.67;14.85;;;0.70;99.90;;;;;;5108269;27;20419;-77
2021/12/03 06:48:58;;;;;;;27.20;15.95;;;0.70;99.90;;;;;;5136418;27;20042;-78
2021/12/03 06:51:24;;;;;;;24.95;14.35;;;0.80;99.90;;;;;;5152866;27;20051;-77
2021/12/03 06:53:59;;;;;;;23.30;13.82;;;0.80;99.90;;;;;;5115535;27;20038;-77
2021/12/03 06:56:32;;;;;;;25.00;12.70;;;0.90;99.90;;;;;;5124492;27;20043;-76
2021/12/03 06:58:58;;;;;;;25.25;14.15;;;0.90;99.90;;;;;;5129958;27;20487;-75
2021/12/03 07:01:24;;;;;;;30.20;14.27;;;0.90;99.90;;;;;;5132177;27;20129;-75
2021/12/03 07:03:50;;;;;;;23.45;12.57;;;1.00;99.90;;;;;;5114821;27;20129;-77
2021/12/03 07:06:15;;;;;;;24.92;13.10;;;1.00;99.90;;;;;;5103572;27;20027;-75
2021/12/03 07:08:41;;;;;;;24.65;12.75;;;1.00;99.90;;;;;;5114240;27;20047;-75
2021/12/03 07:11:07;;;;;;;25.90;12.57;;;1.10;99.90;;;;;;5106805;27;20572;-74
2021/12/03 07:13:32;;;;;;;24.67;12.55;;;1.10;99.90;;;;;;5132091;27;20047;-72
2021/12/03 07:15:59;;;;;;;28.70;13.43;;;1.20;99.90;;;;;;5095938;27;20492;-76
2021/12/03 07:18:25;;;;;;;20.52;12.20;;;1.20;99.90;;;;;;5114963;27;20142;-74
2021/12/03 07:20:51;;;;;;;26.27;11.77;;;1.30;99.90;;;;;;5134867;27;20539;-74
2021/12/03 07:23:17;;;;;;;22.20;12.10;;;1.30;99.90;;;;;;5147738;27;20053;-76
2021/12/03 07:25:42;;;;;;;24.95;12.60;;;1.40;99.90;;;;;;5112390;27;20064;-83
2021/12/03 07:28:08;;;;;;;25.42;12.85;;;1.40;99.90;;;;;;5093922;27;20149;-76
2021/12/03 07:30:34;;;;;;;28.80;12.18;;;1.50;99.90;;;;;;5116907;27;20043;-75
2021/12/03 07:33:01;;;;;;;23.35;12.88;;;1.50;99.90;;;;;;5116055;27;20046;-77
2021/12/03 07:35:27;;;;;;;25.88;12.68;;;1.50;99.90;;;;;;5082643;27;20071;-74
2021/12/03 07:37:53;;;;;;;29.27;13.60;;;1.50;99.90;;;;;;5133537;27;20042;-74
2021/12/03 07:40:18;;;;;;;29.48;14.68;;;1.50;99.90;;;;;;5133792;27;20043;-78
2021/12/03 07:42:44;;;;;;;26.40;12.77;;;1.60;99.90;;;;;;5133414;27;20053;-83
2021/12/03 07:45:12;;;;;;;26.10;11.35;;;1.60;99.90;;;;;;5133608;27;20132;-74
2021/12/03 07:47:38;;;;;;;27.65;14.30;;;1.60;99.90;;;;;;5151940;27;20130;-76
2021/12/03 07:50:06;;;;;;;26.27;12.75;;;1.60;99.90;;;;;;5133023;27;20154;-74
2021/12/03 07:52:33;;;;;;;22.80;11.95;;;1.60;99.90;;;;;;5133896;27;20046;-74
2021/12/03 07:55:00;;;;;;;30.13;14.00;;;1.60;99.90;;;;;;5116610;27;20085;-74
2021/12/03 07:57:25;;;;;;;29.50;13.27;;;1.70;99.90;;;;;;5116459;27;20050;-74
2021/12/03 07:59:51;;;;;;;29.92;13.40;;;1.70;99.90;;;;;;5115947;27;20051;-74
2021/12/03 08:02:17;;;;;;;20.42;11.10;;;1.70;99.90;;;;;;5133396;27;20054;-75
2021/12/03 08:04:43;;;;;;;23.70;12.82;;;1.70;99.90;;;;;;5116449;27;20050;-75
2021/12/03 08:07:09;;;;;;;29.98;13.30;;;1.70;99.90;;;;;;5151350;27;20039;-75
2021/12/03 08:09:35;;;;;;;29.52;12.82;;;1.80;99.90;;;;;;5133317;27;20047;-75
2021/12/03 08:12:01;;;;;;;27.08;13.35;;;1.70;99.90;;;;;;5115628;27;20078;-74
2021/12/03 08:14:27;;;;;;;30.95;13.55;;;1.80;99.90;;;;;;5115891;27;20190;-76
2021/12/03 08:16:53;;;;;;;27.17;12.68;;;1.70;99.90;;;;;;5115355;27;20058;-76
2021/12/03 08:19:19;;;;;;;30.60;13.07;;;1.80;99.90;;;;;;5132981;27;20046;-75
2021/12/03 08:21:44;;;;;;;26.73;12.80;;;1.80;99.90;;;;;;5133859;27;20039;-73
2021/12/03 08:24:10;;;;;;;30.17;12.80;;;1.80;99.90;;;;;;5116496;27;20126;-75
2021/12/03 08:26:36;;;;;;;28.55;12.65;;;1.80;99.90;;;;;;5133793;27;20494;-76
2021/12/03 08:29:04;;;;;;;30.88;13.07;;;1.90;99.90;;;;;;5133352;27;20108;-74
2021/12/03 08:31:30;;;;;;;28.17;13.05;;;1.90;99.90;;;;;;5133631;27;20050;-75
2021/12/03 08:33:56;;;;;;;32.13;14.07;;;1.90;99.90;;;;;;5132840;27;20043;-74
2021/12/03 08:36:21;;;;;;;38.53;14.10;;;1.90;99.90;;;;;;5133988;27;20047;-74
2021/12/03 08:38:47;;;;;;;32.70;14.95;;;2.00;99.90;;;;;;5116799;27;20047;-76
2021/12/03 08:41:17;;;;;;;39.95;15.43;;;2.00;99.90;;;;;;5133300;27;20143;-75
2021/12/03 08:43:44;;;;;;;40.83;16.95;;;2.00;99.90;;;;;;5133051;27;20906;-76
2021/12/03 08:46:43;;;;;;;34.45;16.40;;;2.00;99.90;;;;;;5151657;27;20051;-74
2021/12/03 08:49:11;;;;;;;36.17;15.90;;;2.10;99.90;;;;;;5134107;27;20055;-74
2021/12/03 08:56:57;;;;;;;42.30;18.27;;;2.20;99.90;;;;;;5136572;27;20054;-75
2021/12/03 08:59:23;;;;;;;42.53;18.15;;;2.20;99.90;;;;;;5137489;27;20039;-75
2021/12/03 09:01:49;;;;;;;44.40;19.50;;;2.30;99.90;;;;;;5136208;27;20062;-76
2021/12/03 09:04:14;;;;;;;47.25;20.17;;;2.30;99.90;;;;;;5136173;27;20047;-75
2021/12/03 09:06:41;;;;;;;39.03;18.63;;;2.30;99.90;;;;;;5102974;27;20047;-75
2021/12/03 09:09:08;;;;;;;50.67;20.88;;;2.40;99.90;;;;;;5136766;27;20050;-74
2021/12/03 09:11:36;;;;;;;41.70;21.20;;;2.40;99.90;;;;;;5137071;27;20103;-76
2021/12/03 09:14:06;;;;;;;47.00;22.00;;;2.40;99.90;;;;;;5136340;27;20399;-75
2021/12/03 09:16:32;;;;;;;49.75;22.15;;;2.40;99.90;;;;;;5103517;27;20042;-75
2021/12/03 09:18:59;;;;;;;44.95;23.27;;;2.40;99.90;;;;;;5118837;27;20132;-76
2021/12/03 09:21:31;;;;;;;51.50;23.30;;;2.40;99.90;;;;;;5136684;27;20483;-75
2021/12/03 09:26:35;;;;;;;45.20;21.55;;;2.50;99.90;;;;;;5136650;27;20077;-75
2021/12/03 09:29:07;;;;;;;49.03;23.42;;;2.50;99.90;;;;;;5118246;27;20103;-75
2021/12/03 09:31:37;;;;;;;55.55;24.02;;;2.50;99.90;;;;;;5101956;27;20407;-76
2021/12/03 09:34:08;;;;;;;45.70;22.75;;;2.50;99.90;;;;;;5135905;27;20046;-75
2021/12/03 09:36:34;;;;;;;57.75;25.08;;;2.60;99.90;;;;;;5136640;27;20787;-75
2021/12/03 09:39:00;;;;;;;56.78;24.85;;;2.60;99.90;;;;;;5136452;27;20042;-80
2021/12/03 09:41:26;;;;;;;49.42;23.52;;;2.60;99.90;;;;;;5119953;27;20050;-75
2021/12/03 09:43:53;;;;;;;47.00;22.98;;;2.70;99.90;;;;;;5119636;27;20054;-75
2021/12/03 09:46:25;;;;;;;42.13;21.83;;;2.70;99.90;;;;;;5115375;27;20047;-75
2021/12/03 09:51:29;;;;;;;46.67;21.65;;;2.70;99.90;;;;;;5115508;27;20051;-75
2021/12/03 09:56:31;;;;;;;48.05;20.25;;;2.80;99.90;;;;;;5115784;27;20051;-75
2021/12/03 10:02:12;;;;;;;49.60;21.52;;;2.80;99.90;;;;;;5098963;27;20051;-75
2021/12/03 10:52:09;;;;;;;37.97;13.85;;;3.30;99.90;;;;;;5135943;27;20391;-75
2021/12/03 11:14:21;;;;;;;24.10;9.48;;;3.20;99.90;;;;;;5117407;27;20066;-77
2021/12/03 11:28:25;;;;;;;34.53;9.07;;;3.00;99.90;;;;;;5116691;27;20057;-75
2021/12/03 11:30:43;;;;;;;25.75;9.02;;;3.00;99.90;;;;;;5130357;27;20051;-76
2021/12/03 13:13:20;;;;;;;15.82;7.93;;;2.90;99.90;;;;;;5129941;28;20085;-75
2021/12/03 13:19:27;;;;;;;10.95;6.47;;;3.00;99.90;;;;;;5130010;28;20047;-76
2021/12/03 14:07:26;;;;;;;14.60;7.82;;;3.00;99.90;;;;;;5134022;27;20092;-76
2021/12/03 14:53:23;;;;;;;31.48;17.98;;;3.30;99.90;;;;;;5107630;27;20051;-76
2021/12/03 14:55:58;;;;;;;16.10;9.15;;;3.20;99.90;;;;;;5114489;27;20055;-76
2021/12/03 14:58:38;;;;;;;18.98;8.75;;;3.30;99.90;;;;;;5131359;27;20049;-76
2021/12/03 15:06:55;;;;;;;18.48;10.68;;;3.40;99.90;;;;;;5138123;27;20111;-76
2021/12/03 15:09:22;;;;;;;15.75;9.15;;;3.40;99.90;;;;;;5134783;27;20133;-76
2021/12/03 15:30:25;;;;;;;13.38;9.73;;;3.70;99.90;;;;;;5134457;27;20093;-78
2021/12/03 15:33:07;;;;;;;34.67;26.80;;;3.70;99.90;;;;;;5133783;27;20399;-75
2021/12/03 15:38:21;;;;;;;13.63;8.60;;;3.80;99.90;;;;;;5134721;27;20794;-76
2021/12/03 16:05:17;;;;;;;21.52;13.55;;;3.90;99.90;;;;;;5131609;27;20112;-75
2021/12/03 16:11:15;;;;;;;20.45;12.50;;;4.00;99.90;;;;;;5128649;27;20112;-76
2021/12/03 16:26:40;;;;;;;20.75;12.05;;;3.90;99.90;;;;;;5125604;28;20046;-75
2021/12/03 16:53:30;;;;;;;21.50;14.25;;;4.00;99.90;;;;;;5123753;28;20055;-77
2021/12/03 16:58:22;;;;;;;21.60;13.15;;;4.00;99.90;;;;;;5127549;28;20134;-78
2021/12/03 17:00:53;;;;;;;22.95;13.77;;;4.00;99.90;;;;;;5124409;28;20122;-82
2021/12/03 17:03:28;;;;;;;22.77;14.43;;;4.00;99.90;;;;;;5148796;27;20499;-78
2021/12/03 17:11:36;;;;;;;20.90;14.27;;;4.00;99.90;;;;;;5137492;27;20775;-76
2021/12/03 18:01:31;;;;;;;34.58;21.55;;;4.20;99.90;;;;;;5123415;27;20444;-77
2021/12/03 18:43:21;;;;;;;28.92;17.80;;;4.20;99.90;;;;;;5115750;27;20079;-76
2021/12/03 18:55:11;;;;;;;40.22;22.60;;;4.30;99.90;;;;;;5135478;27;20051;-79
2021/12/03 18:57:43;;;;;;;42.90;23.85;;;4.30;99.90;;;;;;5107131;27;20047;-78
2021/12/03 19:00:12;;;;;;;38.33;21.10;;;4.30;99.90;;;;;;5115609;27;20104;-78
2021/12/03 19:02:40;;;;;;;44.45;23.60;;;4.30;99.90;;;;;;5115667;27;20134;-76
2021/12/03 19:10:09;;;;;;;48.03;24.70;;;4.30;99.90;;;;;;5126938;27;20127;-79
2021/12/03 19:12:39;;;;;;;32.55;17.90;;;4.30;99.90;;;;;;5123553;27;20080;-77
2021/12/03 19:15:06;;;;;;;43.63;23.17;;;4.30;99.90;;;;;;5115152;27;20047;-83
2021/12/03 19:17:37;;;;;;;49.85;27.98;;;4.30;99.90;;;;;;5153907;27;20817;-77
2021/12/03 19:20:05;;;;;;;52.25;25.20;;;4.30;99.90;;;;;;5121798;27;20445;-77
2021/12/03 19:22:31;;;;;;;49.20;25.00;;;4.40;99.90;;;;;;5130164;27;20049;-78
2021/12/03 19:24:58;;;;;;;52.35;24.60;;;4.40;99.90;;;;;;5118666;27;20050;-77
2021/12/03 19:27:26;;;;;;;50.97;26.50;;;4.40;99.90;;;;;;5117088;27;20090;-78
2021/12/03 19:29:54;;;;;;;52.60;25.98;;;4.40;99.90;;;;;;5123317;27;20046;-78
2021/12/03 19:32:23;;;;;;;55.33;30.02;;;4.30;99.90;;;;;;5121946;27;20099;-78
2021/12/03 19:34:50;;;;;;;53.55;27.02;;;4.40;99.90;;;;;;5124704;27;20096;-79
2021/12/03 19:37:16;;;;;;;51.08;25.77;;;4.30;99.90;;;;;;5118943;27;20065;-77
2021/12/03 19:39:41;;;;;;;51.88;25.38;;;4.40;99.90;;;;;;5141179;27;20042;-76
2021/12/03 19:42:15;;;;;;;49.28;25.63;;;4.40;99.90;;;;;;5135221;27;20097;-78
2021/12/03 19:44:49;;;;;;;41.75;21.48;;;4.40;99.90;;;;;;5118241;27;20061;-77
2021/12/03 19:47:15;;;;;;;56.95;29.27;;;4.40;99.90;;;;;;5135040;27;20054;-77
2021/12/03 19:52:13;;;;;;;61.55;27.27;;;4.40;99.90;;;;;;5131102;27;20487;-77
2021/12/03 19:54:39;;;;;;;57.38;31.85;;;4.40;99.90;;;;;;5113830;27;20087;-76
2021/12/03 19:57:05;;;;;;;52.10;26.38;;;4.40;99.90;;;;;;5128805;27;20483;-77
2021/12/03 19:59:31;;;;;;;52.92;25.10;;;4.40;99.90;;;;;;5133913;27;20491;-77
2021/12/03 20:01:59;;;;;;;52.55;27.60;;;4.40;99.90;;;;;;5123521;27;20141;-76
2021/12/03 20:04:25;;;;;;;49.08;25.15;;;4.40;99.90;;;;;;5122186;27;20407;-76
2021/12/03 20:06:51;;;;;;;41.92;21.40;;;4.50;99.90;;;;;;5127822;27;20043;-76
2021/12/03 20:09:20;;;;;;;56.15;33.15;;;4.40;99.90;;;;;;5144055;27;20035;-79
2021/12/03 20:11:52;;;;;;;66.95;43.20;;;4.40;99.90;;;;;;5134647;27;20562;-76
2021/12/03 20:14:20;;;;;;;44.03;22.05;;;4.40;99.90;;;;;;5117430;27;20051;-78
2021/12/03 20:16:58;;;;;;;53.95;26.27;;;4.40;99.90;;;;;;5153129;27;20058;-77
2021/12/03 20:19:40;;;;;;;83.32;47.40;;;4.40;99.90;;;;;;5130305;27;20088;-76
2021/12/03 20:22:20;;;;;;;51.17;22.85;;;4.50;99.90;;;;;;5125782;28;20049;-80
2021/12/03 20:27:41;;;;;;;56.28;24.23;;;4.50;99.90;;;;;;5114272;28;20043;-77
2021/12/03 20:30:15;;;;;;;54.08;23.20;;;4.50;99.90;;;;;;5115975;27;20492;-77
2021/12/03 20:32:50;;;;;;;40.03;19.08;;;4.50;99.90;;;;;;5134812;27;20053;-77
2021/12/03 20:35:55;;;;;;;51.00;23.58;;;4.40;99.90;;;;;;5130837;27;20050;-84
2021/12/03 20:38:14;;;;;;;53.90;29.60;;;4.50;99.90;;;;;;5152065;27;20047;-76
2021/12/03 20:40:40;;;;;;;44.80;21.27;;;4.50;99.90;;;;;;5134742;27;20046;-78
2021/12/03 20:43:27;;;;;;;44.15;22.80;;;4.50;99.90;;;;;;5133783;27;20050;-77
2021/12/03 20:51:47;;;;;;;51.47;24.17;;;4.50;99.90;;;;;;5075594;27;20057;-77
2021/12/03 20:59:42;;;;;;;54.17;25.45;;;4.50;99.90;;;;;;5103241;27;20047;-77
2021/12/03 21:10:24;;;;;;;41.85;19.63;;;4.50;99.90;;;;;;5133540;27;20058;-80
2021/12/03 21:12:51;;;;;;;46.40;22.83;;;4.50;99.90;;;;;;5125158;27;20039;-76